createdAt,value
2022-10-12T00:00:59.858Z,4.60
2022-10-12T00:03:28.299Z,4.60
2022-10-12T00:06:09.275Z,4.60
2022-10-12T00:08:39.135Z,4.50
2022-10-12T00:11:08.426Z,4.50
2022-10-12T00:13:36.721Z,4.50
2022-10-12T00:16:06.274Z,4.50
2022-10-12T00:18:35.528Z,4.50
2022-10-12T00:21:07.272Z,4.50
2022-10-12T00:23:36.731Z,4.50
2022-10-12T00:26:06.852Z,4.50
2022-10-12T00:28:36.081Z,4.40
2022-10-12T00:31:08.760Z,4.40
2022-10-12T00:33:38.606Z,4.40
2022-10-12T00:36:16.719Z,4.40
2022-10-12T00:38:45.579Z,4.40
2022-10-12T00:41:14.882Z,4.40
2022-10-12T00:43:45.615Z,4.40
2022-10-12T00:46:18.062Z,4.40
2022-10-12T00:48:47.836Z,4.50
2022-10-12T00:51:20.349Z,4.40
2022-10-12T00:53:56.268Z,4.40
2022-10-12T00:56:28.035Z,4.40
2022-10-12T00:58:57.427Z,4.40
2022-10-12T01:01:25.830Z,4.30
2022-10-12T01:03:54.181Z,4.30
2022-10-12T01:06:23.769Z,4.20
2022-10-12T01:08:52.327Z,4.20
2022-10-12T01:11:20.455Z,4.20
2022-10-12T01:13:48.568Z,4.10
2022-10-12T01:16:23.472Z,4.10
2022-10-12T01:18:58.844Z,4.00
2022-10-12T01:21:28.807Z,4.00
2022-10-12T01:24:36.735Z,3.90
2022-10-12T01:27:19.159Z,3.90
2022-10-12T01:30:18.278Z,3.90
2022-10-12T01:33:08.467Z,3.90
2022-10-12T01:35:43.087Z,3.90
2022-10-12T01:38:25.285Z,3.90
2022-10-12T01:41:00.823Z,3.90
2022-10-12T01:43:35.466Z,3.90
2022-10-12T01:46:45.126Z,3.90
2022-10-12T01:49:16.004Z,3.90
2022-10-12T01:52:04.732Z,3.90
2022-10-12T01:54:44.952Z,3.90
2022-10-12T01:57:20.241Z,3.80
2022-10-12T01:59:58.523Z,3.90
2022-10-12T02:02:35.949Z,3.90
2022-10-12T02:05:08.041Z,3.80
2022-10-12T02:07:42.536Z,3.80
2022-10-12T02:10:16.940Z,3.90
2022-10-12T02:12:46.456Z,3.80
2022-10-12T02:15:15.857Z,3.80
2022-10-12T02:17:49.183Z,3.80
2022-10-12T02:20:19.460Z,3.70
2022-10-12T02:22:51.581Z,3.70
2022-10-12T02:25:23.515Z,3.70
2022-10-12T02:27:57.487Z,3.60
2022-10-12T02:30:26.321Z,3.60
2022-10-12T02:33:00.780Z,3.70
2022-10-12T02:35:33.686Z,3.70
2022-10-12T02:38:06.026Z,3.70
2022-10-12T02:40:38.368Z,3.70
2022-10-12T02:43:12.949Z,3.70
2022-10-12T02:45:43.978Z,3.70
2022-10-12T02:48:17.367Z,3.60
2022-10-12T02:50:47.606Z,3.60
2022-10-12T02:53:16.199Z,3.60
2022-10-12T02:55:50.044Z,3.50
2022-10-12T02:58:18.805Z,3.60
2022-10-12T03:00:47.235Z,3.50
2022-10-12T03:03:16.797Z,3.60
2022-10-12T03:05:45.125Z,3.50
2022-10-12T03:08:13.537Z,3.40
2022-10-12T03:10:41.649Z,3.50
2022-10-12T03:13:09.800Z,3.50
2022-10-12T03:15:38.015Z,3.50
2022-10-12T03:18:06.330Z,3.40
2022-10-12T03:20:35.853Z,3.50
2022-10-12T03:23:04.424Z,3.60
2022-10-12T03:25:33.325Z,3.50
2022-10-12T03:28:01.623Z,3.50
2022-10-12T03:30:29.825Z,3.60
2022-10-12T03:32:57.994Z,3.50
2022-10-12T03:35:26.166Z,3.50
2022-10-12T03:37:55.792Z,3.50
2022-10-12T03:40:24.050Z,3.50
2022-10-12T03:42:52.179Z,3.40
2022-10-12T03:45:20.331Z,3.40
2022-10-12T03:47:48.730Z,3.40
2022-10-12T03:50:16.990Z,3.40
2022-10-12T03:52:45.126Z,3.40
2022-10-12T03:55:14.675Z,3.30
2022-10-12T03:57:42.873Z,3.30
2022-10-12T04:00:12.496Z,3.30
2022-10-12T04:02:40.711Z,3.30
2022-10-12T04:05:09.533Z,3.30
2022-10-12T04:07:38.461Z,3.30
2022-10-12T04:10:08.341Z,3.30
2022-10-12T04:12:37.897Z,3.30
2022-10-12T04:15:07.343Z,3.30
2022-10-12T04:17:35.696Z,3.30
2022-10-12T04:20:04.019Z,3.30
2022-10-12T04:22:32.349Z,3.30
2022-10-12T04:25:00.536Z,3.30
2022-10-12T04:27:28.907Z,3.20
2022-10-12T04:29:58.547Z,3.30
2022-10-12T04:32:27.156Z,3.20
2022-10-12T04:34:55.284Z,3.20
2022-10-12T04:37:23.522Z,3.20
2022-10-12T04:39:51.699Z,3.20
2022-10-12T04:42:19.839Z,3.20
2022-10-12T04:44:48.108Z,3.20
2022-10-12T04:47:17.714Z,3.20
2022-10-12T04:49:45.943Z,3.10
2022-10-12T04:52:14.162Z,3.10
2022-10-12T04:54:42.335Z,3.00
2022-10-12T04:57:10.607Z,3.00
2022-10-12T04:59:38.819Z,3.00
2022-10-12T05:02:07.009Z,3.00
2022-10-12T05:04:36.590Z,3.00
2022-10-12T05:07:04.931Z,3.00
2022-10-12T05:09:33.102Z,3.00
2022-10-12T05:12:01.247Z,2.90
2022-10-12T05:14:33.599Z,2.90
2022-10-12T05:17:04.464Z,2.90
2022-10-12T05:19:32.696Z,2.90
2022-10-12T05:22:02.526Z,2.90
2022-10-12T05:24:30.756Z,2.90
2022-10-12T05:26:58.910Z,2.90
2022-10-12T05:29:27.098Z,2.90
2022-10-12T05:31:55.416Z,3.00
2022-10-12T05:34:24.678Z,3.00
2022-10-12T05:36:52.874Z,3.00
2022-10-12T05:39:22.483Z,3.00
2022-10-12T05:41:51.436Z,3.00
2022-10-12T05:44:19.551Z,3.10
2022-10-12T05:46:47.751Z,3.10
2022-10-12T05:49:15.903Z,3.10
2022-10-12T05:51:44.072Z,3.20
2022-10-12T05:54:12.270Z,3.20
2022-10-12T05:56:41.910Z,3.20
2022-10-12T05:59:10.122Z,3.20
2022-10-12T06:01:38.474Z,3.20
2022-10-12T06:04:06.774Z,3.20
2022-10-12T06:06:34.955Z,3.30
2022-10-12T06:09:03.400Z,3.30
2022-10-12T06:11:34.071Z,3.40
2022-10-12T06:14:06.081Z,3.40
2022-10-12T06:16:34.548Z,3.50
2022-10-12T06:19:02.730Z,3.50
2022-10-12T06:21:34.738Z,3.60
2022-10-12T06:24:03.301Z,3.60
2022-10-12T06:26:31.615Z,3.70
2022-10-12T06:29:00.929Z,3.80
2022-10-12T06:31:32.172Z,3.90
2022-10-12T06:34:00.492Z,3.90
2022-10-12T06:36:28.727Z,4.10
2022-10-12T06:38:56.860Z,4.10
2022-10-12T06:41:25.125Z,4.20
2022-10-12T06:43:53.430Z,4.30
2022-10-12T06:46:21.544Z,4.40
2022-10-12T06:48:51.127Z,4.50
2022-10-12T06:51:19.410Z,4.60
2022-10-12T06:53:47.531Z,4.70
2022-10-12T06:56:15.721Z,4.80
2022-10-12T06:58:43.955Z,4.90
2022-10-12T07:01:12.135Z,5.10
2022-10-12T07:03:40.330Z,5.20
2022-10-12T07:06:12.192Z,5.30
2022-10-12T07:08:42.121Z,5.40
2022-10-12T07:11:11.953Z,5.50
2022-10-12T07:13:40.220Z,5.60
2022-10-12T07:16:09.015Z,5.80
2022-10-12T07:18:37.237Z,5.90
2022-10-12T07:21:05.488Z,6.00
2022-10-12T07:23:40.179Z,6.00
2022-10-12T07:26:10.959Z,6.10
2022-10-12T07:28:39.271Z,6.20
2022-10-12T07:31:09.918Z,6.30
2022-10-12T07:33:39.747Z,6.30
2022-10-12T07:36:21.186Z,6.40
2022-10-12T07:38:51.543Z,6.50
2022-10-12T07:41:20.461Z,6.60
2022-10-12T07:43:48.638Z,6.70
2022-10-12T07:46:16.824Z,6.70
2022-10-12T07:48:50.004Z,6.70
2022-10-12T07:51:19.144Z,6.70
2022-10-12T07:53:47.436Z,6.70
2022-10-12T07:56:17.225Z,6.80
2022-10-12T07:58:50.117Z,6.90
2022-10-12T08:01:19.492Z,7.00
2022-10-12T08:03:47.776Z,7.10
2022-10-12T08:06:17.284Z,7.20
2022-10-12T08:08:45.924Z,7.20
2022-10-12T08:11:14.684Z,7.30
2022-10-12T08:13:44.309Z,7.40
2022-10-12T08:16:14.980Z,7.50
2022-10-12T08:18:43.382Z,7.60
2022-10-12T08:21:13.658Z,7.80
2022-10-12T08:23:44.486Z,7.90
2022-10-12T08:26:13.164Z,7.90
2022-10-12T08:28:41.376Z,8.10
2022-10-12T08:31:14.072Z,8.30
2022-10-12T08:33:42.330Z,8.40
2022-10-12T08:36:12.414Z,8.60
2022-10-12T08:38:43.410Z,8.70
2022-10-12T08:41:48.900Z,8.90
2022-10-12T08:44:52.361Z,9.00
2022-10-12T08:47:27.103Z,9.20
2022-10-12T08:49:55.681Z,9.30
2022-10-12T08:52:29.858Z,9.40
2022-10-12T08:55:03.383Z,9.50
2022-10-12T08:57:31.860Z,9.60
2022-10-12T09:00:01.619Z,9.70
2022-10-12T09:02:51.742Z,9.80
2022-10-12T09:05:27.990Z,9.90
2022-10-12T09:08:02.757Z,9.90
2022-10-12T09:10:44.104Z,10.00
2022-10-12T09:13:22.898Z,10.10
2022-10-12T09:15:58.298Z,10.20
2022-10-12T09:18:40.881Z,10.30
2022-10-12T09:21:12.595Z,10.40
2022-10-12T09:23:44.216Z,10.50
2022-10-12T09:26:17.241Z,10.70
2022-10-12T09:28:47.369Z,10.80
2022-10-12T09:31:44.471Z,10.80
2022-10-12T09:34:18.860Z,10.90
2022-10-12T09:36:47.683Z,10.90
2022-10-12T09:39:20.321Z,11.00
2022-10-12T09:41:50.020Z,11.10
2022-10-12T09:44:30.843Z,11.30
2022-10-12T09:47:01.398Z,11.40
2022-10-12T09:49:43.041Z,11.50
2022-10-12T09:52:12.305Z,11.60
2022-10-12T09:54:42.504Z,11.70
2022-10-12T09:57:11.064Z,11.80
2022-10-12T09:59:44.379Z,12.00
2022-10-12T10:02:16.656Z,12.10
2022-10-12T10:04:47.493Z,12.10
2022-10-12T10:07:23.265Z,12.10
2022-10-12T10:10:17.879Z,12.10
2022-10-12T10:12:51.513Z,12.10
2022-10-12T10:15:25.991Z,12.20
2022-10-12T10:17:56.688Z,12.30
2022-10-12T10:20:33.060Z,12.40
2022-10-12T10:23:03.343Z,12.50
2022-10-12T10:25:32.211Z,12.60
2022-10-12T10:28:30.131Z,12.70
2022-10-12T10:31:02.837Z,12.80
2022-10-12T10:33:32.258Z,12.90
2022-10-12T10:36:09.702Z,13.00
2022-10-12T10:38:55.460Z,13.10
2022-10-12T10:41:28.493Z,13.20
2022-10-12T10:43:56.850Z,13.20
2022-10-12T10:46:27.473Z,13.20
2022-10-12T10:48:59.174Z,13.30
2022-10-12T10:51:44.536Z,13.20
2022-10-12T10:54:18.008Z,13.30
2022-10-12T10:56:47.754Z,13.30
2022-10-12T10:59:28.751Z,13.30
2022-10-12T11:01:59.722Z,13.40
2022-10-12T11:04:30.825Z,13.50
2022-10-12T11:07:06.902Z,13.50
2022-10-12T11:09:42.474Z,13.50
2022-10-12T11:12:15.573Z,13.60
2022-10-12T11:14:46.781Z,13.60
2022-10-12T11:17:20.753Z,13.60
2022-10-12T11:19:53.968Z,13.60
2022-10-12T11:22:30.350Z,13.60
2022-10-12T11:25:09.088Z,13.70
2022-10-12T11:27:39.810Z,13.70
2022-10-12T11:30:15.074Z,13.80
2022-10-12T11:32:46.999Z,13.90
2022-10-12T11:35:18.282Z,14.00
2022-10-12T11:37:52.297Z,14.10
2022-10-12T11:40:47.696Z,14.20
2022-10-12T11:43:18.338Z,14.20
2022-10-12T11:45:49.507Z,14.20
2022-10-12T11:48:27.014Z,14.20
2022-10-12T11:51:03.840Z,14.20
2022-10-12T11:53:47.438Z,14.10
2022-10-12T11:56:21.627Z,14.00
2022-10-12T11:59:01.003Z,13.80
2022-10-12T12:01:43.195Z,13.60
2022-10-12T12:04:46.639Z,13.40
2022-10-12T12:07:47.407Z,13.20
2022-10-12T12:11:04.516Z,13.20
2022-10-12T12:13:34.115Z,13.20
2022-10-12T12:16:34.070Z,13.20
2022-10-12T12:19:34.440Z,13.30
2022-10-12T12:22:24.546Z,13.40
2022-10-12T12:25:04.251Z,13.50
2022-10-12T12:27:36.479Z,13.60
2022-10-12T12:30:24.493Z,13.50
2022-10-12T12:32:55.377Z,13.50
2022-10-12T12:35:27.943Z,13.50
2022-10-12T12:38:17.537Z,13.40
2022-10-12T12:41:01.508Z,13.40
2022-10-12T12:43:56.280Z,13.30
2022-10-12T12:46:47.979Z,13.20
2022-10-12T12:49:29.815Z,13.10
2022-10-12T12:51:59.900Z,13.00
2022-10-12T12:54:29.083Z,12.90
2022-10-12T12:57:29.928Z,12.90
2022-10-12T13:00:25.838Z,12.80
2022-10-12T13:03:42.128Z,12.80
2022-10-12T13:06:46.686Z,12.70
2022-10-12T13:09:30.893Z,12.80
2022-10-12T13:12:27.668Z,12.80
2022-10-12T13:15:17.126Z,12.90
2022-10-12T13:18:05.082Z,13.00
2022-10-12T13:20:35.674Z,13.20
2022-10-12T13:23:09.925Z,13.30
2022-10-12T13:25:43.121Z,13.40
2022-10-12T13:28:16.260Z,13.40
2022-10-12T13:30:52.389Z,13.50
2022-10-12T13:33:32.093Z,13.60
2022-10-12T13:36:05.640Z,13.60
2022-10-12T13:38:38.554Z,13.60
2022-10-12T13:41:10.891Z,13.60
2022-10-12T13:43:45.941Z,13.40
2022-10-12T13:46:16.327Z,13.30
2022-10-12T13:49:05.480Z,13.20
2022-10-12T13:51:35.086Z,13.00
2022-10-12T13:54:19.396Z,12.90
2022-10-12T13:56:49.032Z,12.70
2022-10-12T13:59:20.624Z,12.60
2022-10-12T14:01:54.928Z,12.50
2022-10-12T14:04:24.046Z,12.50
2022-10-12T14:07:00.464Z,12.50
2022-10-12T14:09:37.382Z,12.50
2022-10-12T14:12:06.144Z,12.50
2022-10-12T14:14:37.198Z,12.60
2022-10-12T14:17:05.888Z,12.60
2022-10-12T14:19:36.977Z,12.70
2022-10-12T14:22:05.488Z,12.70
2022-10-12T14:24:37.132Z,12.70
2022-10-12T14:27:07.115Z,12.70
2022-10-12T14:29:41.445Z,12.60
2022-10-12T14:32:38.519Z,12.70
2022-10-12T14:35:13.829Z,12.70
2022-10-12T14:37:42.040Z,12.60
2022-10-12T14:40:38.472Z,12.60
2022-10-12T14:43:20.955Z,12.60
2022-10-12T14:45:49.416Z,12.50
2022-10-12T14:48:20.465Z,12.50
2022-10-12T14:50:48.701Z,12.50
2022-10-12T14:53:17.206Z,12.40
2022-10-12T14:55:48.571Z,12.40
2022-10-12T14:58:19.158Z,12.40
2022-10-12T15:00:47.455Z,12.30
2022-10-12T15:03:17.987Z,12.30
2022-10-12T15:05:46.250Z,12.20
2022-10-12T15:08:14.348Z,12.20
2022-10-12T15:10:42.536Z,12.10
2022-10-12T15:13:15.298Z,12.10
2022-10-12T15:15:46.511Z,12.00
2022-10-12T15:18:14.853Z,11.90
2022-10-12T15:20:46.912Z,11.90
2022-10-12T15:23:17.291Z,11.80
2022-10-12T15:25:48.875Z,11.80
2022-10-12T15:28:18.814Z,11.70
2022-10-12T15:31:12.150Z,11.70
2022-10-12T15:33:35.466Z,11.60
2022-10-12T15:36:03.660Z,11.50
2022-10-12T15:38:31.911Z,11.50
2022-10-12T15:41:00.161Z,11.40
2022-10-12T15:43:30.155Z,11.40
2022-10-12T15:46:00.380Z,11.30
2022-10-12T15:48:29.424Z,11.30
2022-10-12T15:50:57.737Z,11.20
2022-10-12T15:53:27.315Z,11.10
2022-10-12T15:55:56.689Z,11.10
2022-10-12T15:58:24.833Z,11.00
2022-10-12T16:00:56.529Z,11.00
2022-10-12T16:03:27.986Z,10.90
2022-10-12T16:05:56.080Z,10.90
2022-10-12T16:08:24.749Z,10.90
2022-10-12T16:10:53.177Z,10.90
2022-10-12T16:13:21.438Z,10.80
2022-10-12T16:15:49.721Z,10.80
2022-10-12T16:18:19.903Z,10.80
2022-10-12T16:20:53.584Z,10.80
2022-10-12T16:23:24.219Z,10.70
2022-10-12T16:25:52.473Z,10.60
2022-10-12T16:28:20.660Z,10.60
2022-10-12T16:30:49.730Z,10.60
2022-10-12T16:33:19.710Z,10.60
2022-10-12T16:35:48.101Z,10.60
2022-10-12T16:38:16.324Z,10.60
2022-10-12T16:40:44.547Z,10.50
2022-10-12T16:43:12.827Z,10.60
2022-10-12T16:45:41.086Z,10.50
2022-10-12T16:48:09.397Z,10.50
2022-10-12T16:50:40.938Z,10.50
2022-10-12T16:53:09.664Z,10.50
2022-10-12T16:55:40.916Z,10.50
2022-10-12T16:58:09.283Z,10.50
2022-10-12T17:00:37.741Z,10.50
2022-10-12T17:03:05.975Z,10.50
2022-10-12T17:05:34.613Z,10.40
2022-10-12T17:08:04.364Z,10.40
2022-10-12T17:10:32.699Z,10.40
2022-10-12T17:13:00.903Z,10.40
2022-10-12T17:15:29.253Z,10.30
2022-10-12T17:17:59.277Z,10.30
2022-10-12T17:20:27.462Z,10.30
2022-10-12T17:22:55.713Z,10.30
2022-10-12T17:25:25.338Z,10.20
2022-10-12T17:27:53.490Z,10.20
2022-10-12T17:30:21.741Z,10.20
2022-10-12T17:32:50.013Z,10.10
2022-10-12T17:35:18.455Z,10.10
2022-10-12T17:37:46.627Z,10.10
2022-10-12T17:40:14.841Z,10.10
2022-10-12T17:42:44.469Z,10.10
2022-10-12T17:45:12.702Z,10.10
2022-10-12T17:47:40.863Z,10.10
2022-10-12T17:50:09.897Z,10.10
2022-10-12T17:52:41.198Z,10.00
2022-10-12T17:55:24.355Z,10.00
2022-10-12T17:57:59.415Z,10.00
2022-10-12T18:00:27.969Z,10.00
2022-10-12T18:02:56.297Z,10.00
2022-10-12T18:05:24.519Z,10.10
2022-10-12T18:07:52.705Z,10.00
2022-10-12T18:10:23.496Z,9.90
2022-10-12T18:12:54.228Z,9.90
2022-10-12T18:15:23.928Z,9.90
2022-10-12T18:17:52.131Z,9.90
2022-10-12T18:20:20.338Z,9.90
2022-10-12T18:22:48.573Z,9.90
2022-10-12T18:25:17.161Z,9.90
2022-10-12T18:27:46.873Z,9.90
2022-10-12T18:30:15.270Z,9.80
2022-10-12T18:32:44.866Z,9.80
2022-10-12T18:35:13.060Z,9.80
2022-10-12T18:37:41.297Z,9.80
2022-10-12T18:40:11.144Z,9.80
2022-10-12T18:42:39.410Z,9.70
2022-10-12T18:45:08.179Z,9.70
2022-10-12T18:47:36.724Z,9.70
2022-10-12T18:50:07.714Z,9.70
2022-10-12T18:52:36.049Z,9.60
2022-10-12T18:55:04.302Z,9.60
2022-10-12T18:57:36.428Z,9.50
2022-10-12T19:00:09.931Z,9.50
2022-10-12T19:02:38.317Z,9.40
2022-10-12T19:05:08.461Z,9.40
2022-10-12T19:07:36.910Z,9.40
2022-10-12T19:10:07.126Z,9.30
2022-10-12T19:12:35.530Z,9.30
2022-10-12T19:15:04.068Z,9.30
2022-10-12T19:17:33.176Z,9.20
2022-10-12T19:20:03.352Z,9.20
2022-10-12T19:22:32.994Z,9.20
2022-10-12T19:25:01.172Z,9.20
2022-10-12T19:27:29.531Z,9.20
2022-10-12T19:29:57.906Z,9.10
2022-10-12T19:32:26.138Z,9.00
2022-10-12T19:34:54.442Z,9.00
2022-10-12T19:37:23.079Z,9.00
2022-10-12T19:39:52.669Z,9.00
2022-10-12T19:42:21.210Z,8.90
2022-10-12T19:44:49.628Z,9.00
2022-10-12T19:47:17.860Z,8.90
2022-10-12T19:49:46.289Z,8.90
2022-10-12T19:52:14.524Z,8.90
2022-10-12T19:54:42.730Z,8.80
2022-10-12T19:57:12.384Z,8.80
2022-10-12T19:59:40.720Z,8.80
2022-10-12T20:02:10.257Z,8.80
2022-10-12T20:04:38.482Z,8.80
2022-10-12T20:07:06.762Z,8.70
2022-10-12T20:09:34.943Z,8.70
2022-10-12T20:12:03.129Z,8.70
2022-10-12T20:14:33.840Z,8.70
2022-10-12T20:17:02.105Z,8.70
2022-10-12T20:19:30.359Z,8.70
2022-10-12T20:21:58.487Z,8.70
2022-10-12T20:24:26.754Z,8.60
2022-10-12T20:26:54.880Z,8.60
2022-10-12T20:29:23.054Z,8.60
2022-10-12T20:31:52.655Z,8.60
2022-10-12T20:34:21.054Z,8.50
2022-10-12T20:36:51.622Z,8.50
2022-10-12T20:39:20.264Z,8.50
2022-10-12T20:41:48.427Z,8.50
2022-10-12T20:44:16.590Z,8.40
2022-10-12T20:46:57.619Z,8.40
2022-10-12T20:49:25.779Z,8.40
2022-10-12T20:51:54.255Z,8.30
2022-10-12T20:54:23.280Z,8.30
2022-10-12T20:56:52.065Z,8.30
2022-10-12T20:59:20.857Z,8.30
2022-10-12T21:01:49.213Z,8.20
2022-10-12T21:04:18.963Z,8.20
2022-10-12T21:06:47.258Z,8.20
2022-10-12T21:09:15.946Z,8.10
2022-10-12T21:11:44.657Z,8.10
2022-10-12T21:14:13.712Z,8.10
2022-10-12T21:16:42.287Z,8.10
2022-10-12T21:19:15.219Z,8.00
2022-10-12T21:21:46.545Z,8.00
2022-10-12T21:24:17.424Z,8.00
2022-10-12T21:26:46.182Z,7.90
2022-10-12T21:29:14.755Z,7.90
2022-10-12T21:31:42.947Z,8.00
2022-10-12T21:34:11.509Z,7.90
2022-10-12T21:36:40.171Z,7.80
2022-10-12T21:39:12.936Z,7.80
2022-10-12T21:41:41.782Z,7.90
2022-10-12T21:44:10.880Z,7.80
2022-10-12T21:46:39.028Z,7.90
2022-10-12T21:49:08.321Z,7.80
2022-10-12T21:51:37.798Z,7.80
2022-10-12T21:54:07.031Z,7.70
2022-10-12T21:56:37.868Z,7.70
2022-10-12T21:59:07.101Z,7.70
2022-10-12T22:01:36.804Z,7.60
2022-10-12T22:04:07.288Z,7.60
2022-10-12T22:06:35.862Z,7.60
2022-10-12T22:09:07.208Z,7.60
2022-10-12T22:11:38.241Z,7.40
2022-10-12T22:14:12.315Z,7.40
2022-10-12T22:16:40.640Z,7.40
2022-10-12T22:19:14.240Z,7.30
2022-10-12T22:21:42.867Z,7.30
2022-10-12T22:24:11.054Z,7.20
2022-10-12T22:26:40.930Z,7.20
2022-10-12T22:29:10.506Z,7.20
2022-10-12T22:31:40.320Z,7.10
2022-10-12T22:34:11.718Z,7.00
2022-10-12T22:36:40.155Z,7.10
2022-10-12T22:39:09.590Z,6.90
2022-10-12T22:41:37.812Z,6.90
2022-10-12T22:44:07.677Z,6.90
2022-10-12T22:46:35.927Z,6.80
2022-10-12T22:49:04.288Z,6.80
2022-10-12T22:51:34.581Z,6.80
2022-10-12T22:54:03.354Z,6.60
2022-10-12T22:56:32.215Z,6.70
2022-10-12T22:59:02.655Z,6.60
2022-10-12T23:01:32.149Z,6.60
2022-10-12T23:04:00.516Z,6.60
2022-10-12T23:06:28.656Z,6.50
2022-10-12T23:08:56.859Z,6.50
2022-10-12T23:11:26.873Z,6.40
2022-10-12T23:13:56.059Z,6.40
2022-10-12T23:16:25.796Z,6.50
2022-10-12T23:19:00.156Z,6.30
2022-10-12T23:21:29.489Z,6.30
2022-10-12T23:23:59.113Z,6.30
2022-10-12T23:26:28.579Z,6.30
2022-10-12T23:28:57.962Z,6.30
2022-10-12T23:31:28.857Z,6.30
2022-10-12T23:34:01.228Z,6.20
2022-10-12T23:36:29.837Z,6.30
2022-10-12T23:39:00.725Z,6.20
2022-10-12T23:41:28.892Z,6.20
2022-10-12T23:43:57.037Z,6.30
2022-10-12T23:46:25.307Z,6.20
2022-10-12T23:48:55.311Z,6.20
2022-10-12T23:51:24.948Z,6.10
2022-10-12T23:53:53.078Z,6.30
2022-10-12T23:56:21.339Z,6.00
2022-10-12T23:58:49.500Z,6.00
